sensor_id;sensor_type;location;lat;lon;timestamp;P1;durP1;ratioP1;P2;durP2;ratioP2
82787;SDS011;72529;51.786;4.662;2023-10-19T00:00:45;14.53;;;14.53;;
82787;SDS011;72529;51.786;4.662;2023-10-19T00:03:16;14.94;;;14.93;;
82787;SDS011;72529;51.786;4.662;2023-10-19T00:05:43;15.44;;;15.41;;
82787;SDS011;72529;51.786;4.662;2023-10-19T00:08:10;15.01;;;14.99;;
82787;SDS011;72529;51.786;4.662;2023-10-19T00:10:47;14.50;;;14.49;;
82787;SDS011;72529;51.786;4.662;2023-10-19T00:13:20;14.41;;;14.41;;
82787;SDS011;72529;51.786;4.662;2023-10-19T00:15:47;14.42;;;14.42;;
82787;SDS011;72529;51.786;4.662;2023-10-19T00:18:17;14.81;;;14.80;;
82787;SDS011;72529;51.786;4.662;2023-10-19T00:20:44;14.63;;;14.57;;
82787;SDS011;72529;51.786;4.662;2023-10-19T00:23:14;13.88;;;13.88;;
82787;SDS011;72529;51.786;4.662;2023-10-19T00:26:00;14.23;;;14.23;;
82787;SDS011;72529;51.786;4.662;2023-10-19T00:28:34;14.03;;;14.03;;
82787;SDS011;72529;51.786;4.662;2023-10-19T00:31:04;14.05;;;14.03;;
82787;SDS011;72529;51.786;4.662;2023-10-19T00:33:33;14.45;;;14.45;;
82787;SDS011;72529;51.786;4.662;2023-10-19T00:36:03;14.25;;;14.19;;
82787;SDS011;72529;51.786;4.662;2023-10-19T00:38:39;14.22;;;14.15;;
82787;SDS011;72529;51.786;4.662;2023-10-19T00:41:20;13.59;;;13.59;;
82787;SDS011;72529;51.786;4.662;2023-10-19T00:43:52;13.48;;;13.46;;
82787;SDS011;72529;51.786;4.662;2023-10-19T00:46:38;12.99;;;12.96;;
82787;SDS011;72529;51.786;4.662;2023-10-19T00:49:07;12.63;;;12.63;;
82787;SDS011;72529;51.786;4.662;2023-10-19T00:51:38;12.73;;;12.73;;
82787;SDS011;72529;51.786;4.662;2023-10-19T00:54:13;12.46;;;12.45;;
82787;SDS011;72529;51.786;4.662;2023-10-19T00:56:47;12.22;;;12.21;;
82787;SDS011;72529;51.786;4.662;2023-10-19T00:59:21;11.59;;;11.59;;
82787;SDS011;72529;51.786;4.662;2023-10-19T01:01:52;9.39;;;9.39;;
82787;SDS011;72529;51.786;4.662;2023-10-19T01:04:21;7.54;;;7.54;;
82787;SDS011;72529;51.786;4.662;2023-10-19T01:06:56;6.55;;;6.55;;
82787;SDS011;72529;51.786;4.662;2023-10-19T01:09:36;5.81;;;5.81;;
82787;SDS011;72529;51.786;4.662;2023-10-19T01:12:04;5.48;;;5.48;;
82787;SDS011;72529;51.786;4.662;2023-10-19T01:17:33;4.51;;;4.51;;
82787;SDS011;72529;51.786;4.662;2023-10-19T01:20:04;4.24;;;4.24;;
82787;SDS011;72529;51.786;4.662;2023-10-19T01:23:02;4.19;;;4.19;;
82787;SDS011;72529;51.786;4.662;2023-10-19T01:25:31;4.33;;;4.33;;
82787;SDS011;72529;51.786;4.662;2023-10-19T01:28:27;4.22;;;4.22;;
82787;SDS011;72529;51.786;4.662;2023-10-19T01:31:06;3.80;;;3.80;;
82787;SDS011;72529;51.786;4.662;2023-10-19T01:33:32;3.89;;;3.89;;
82787;SDS011;72529;51.786;4.662;2023-10-19T01:35:59;3.51;;;3.51;;
82787;SDS011;72529;51.786;4.662;2023-10-19T01:38:40;3.30;;;3.30;;
82787;SDS011;72529;51.786;4.662;2023-10-19T01:41:07;3.45;;;3.45;;
82787;SDS011;72529;51.786;4.662;2023-10-19T01:43:47;3.55;;;3.55;;
82787;SDS011;72529;51.786;4.662;2023-10-19T01:46:14;3.44;;;3.44;;
82787;SDS011;72529;51.786;4.662;2023-10-19T01:48:51;3.15;;;3.15;;
82787;SDS011;72529;51.786;4.662;2023-10-19T01:51:25;2.71;;;2.71;;
82787;SDS011;72529;51.786;4.662;2023-10-19T01:53:52;2.57;;;2.57;;
82787;SDS011;72529;51.786;4.662;2023-10-19T01:56:20;2.97;;;2.97;;
82787;SDS011;72529;51.786;4.662;2023-10-19T01:58:47;3.90;;;3.90;;
82787;SDS011;72529;51.786;4.662;2023-10-19T02:01:14;3.83;;;3.83;;
82787;SDS011;72529;51.786;4.662;2023-10-19T02:03:53;4.55;;;4.55;;
82787;SDS011;72529;51.786;4.662;2023-10-19T02:06:23;4.94;;;4.94;;
82787;SDS011;72529;51.786;4.662;2023-10-19T02:08:57;4.80;;;4.80;;
82787;SDS011;72529;51.786;4.662;2023-10-19T02:11:34;5.40;;;5.40;;
82787;SDS011;72529;51.786;4.662;2023-10-19T02:14:03;4.42;;;4.42;;
82787;SDS011;72529;51.786;4.662;2023-10-19T02:16:39;4.02;;;4.02;;
82787;SDS011;72529;51.786;4.662;2023-10-19T02:19:05;3.67;;;3.67;;
82787;SDS011;72529;51.786;4.662;2023-10-19T02:21:30;3.40;;;3.40;;
82787;SDS011;72529;51.786;4.662;2023-10-19T02:23:56;3.51;;;3.51;;
82787;SDS011;72529;51.786;4.662;2023-10-19T02:26:22;3.18;;;3.18;;
82787;SDS011;72529;51.786;4.662;2023-10-19T02:28:51;2.70;;;2.70;;
82787;SDS011;72529;51.786;4.662;2023-10-19T02:31:17;2.38;;;2.38;;
82787;SDS011;72529;51.786;4.662;2023-10-19T02:33:47;2.48;;;2.48;;
82787;SDS011;72529;51.786;4.662;2023-10-19T02:36:28;1.94;;;1.94;;
82787;SDS011;72529;51.786;4.662;2023-10-19T02:38:55;2.07;;;2.07;;
82787;SDS011;72529;51.786;4.662;2023-10-19T02:41:24;2.30;;;2.30;;
82787;SDS011;72529;51.786;4.662;2023-10-19T02:43:52;2.26;;;2.26;;
82787;SDS011;72529;51.786;4.662;2023-10-19T02:46:51;1.97;;;1.97;;
82787;SDS011;72529;51.786;4.662;2023-10-19T02:49:23;2.07;;;2.07;;
82787;SDS011;72529;51.786;4.662;2023-10-19T02:51:51;1.87;;;1.85;;
82787;SDS011;72529;51.786;4.662;2023-10-19T02:54:19;1.81;;;1.76;;
82787;SDS011;72529;51.786;4.662;2023-10-19T02:56:51;1.70;;;1.64;;
82787;SDS011;72529;51.786;4.662;2023-10-19T02:59:19;1.52;;;1.44;;
82787;SDS011;72529;51.786;4.662;2023-10-19T03:01:49;1.64;;;1.54;;
82787;SDS011;72529;51.786;4.662;2023-10-19T03:04:15;1.54;;;1.43;;
82787;SDS011;72529;51.786;4.662;2023-10-19T03:06:41;1.77;;;1.62;;
82787;SDS011;72529;51.786;4.662;2023-10-19T03:09:07;1.74;;;1.59;;
82787;SDS011;72529;51.786;4.662;2023-10-19T03:12:06;1.69;;;1.50;;
82787;SDS011;72529;51.786;4.662;2023-10-19T03:14:35;1.93;;;1.69;;
82787;SDS011;72529;51.786;4.662;2023-10-19T03:17:02;1.86;;;1.63;;
82787;SDS011;72529;51.786;4.662;2023-10-19T03:19:29;1.90;;;1.66;;
82787;SDS011;72529;51.786;4.662;2023-10-19T03:21:55;2.16;;;1.88;;
82787;SDS011;72529;51.786;4.662;2023-10-19T03:24:25;2.09;;;1.80;;
82787;SDS011;72529;51.786;4.662;2023-10-19T03:27:15;1.89;;;1.63;;
82787;SDS011;72529;51.786;4.662;2023-10-19T03:29:41;1.68;;;1.45;;
82787;SDS011;72529;51.786;4.662;2023-10-19T03:32:11;1.97;;;1.71;;
82787;SDS011;72529;51.786;4.662;2023-10-19T03:34:37;1.95;;;1.71;;
82787;SDS011;72529;51.786;4.662;2023-10-19T03:37:03;2.09;;;1.83;;
82787;SDS011;72529;51.786;4.662;2023-10-19T03:39:37;2.04;;;1.76;;
82787;SDS011;72529;51.786;4.662;2023-10-19T03:42:03;1.99;;;1.74;;
82787;SDS011;72529;51.786;4.662;2023-10-19T03:44:31;1.89;;;1.64;;
82787;SDS011;72529;51.786;4.662;2023-10-19T03:47:24;2.08;;;1.81;;
82787;SDS011;72529;51.786;4.662;2023-10-19T03:50:02;1.76;;;1.55;;
82787;SDS011;72529;51.786;4.662;2023-10-19T03:52:39;2.15;;;1.84;;
82787;SDS011;72529;51.786;4.662;2023-10-19T03:55:05;2.00;;;1.72;;
82787;SDS011;72529;51.786;4.662;2023-10-19T03:57:44;1.83;;;1.57;;
82787;SDS011;72529;51.786;4.662;2023-10-19T04:00:15;2.40;;;2.05;;
82787;SDS011;72529;51.786;4.662;2023-10-19T04:02:43;2.16;;;1.85;;
82787;SDS011;72529;51.786;4.662;2023-10-19T04:05:09;2.11;;;1.80;;
82787;SDS011;72529;51.786;4.662;2023-10-19T04:07:47;2.14;;;1.77;;
82787;SDS011;72529;51.786;4.662;2023-10-19T04:10:22;2.20;;;1.83;;
82787;SDS011;72529;51.786;4.662;2023-10-19T04:12:54;2.20;;;1.84;;
82787;SDS011;72529;51.786;4.662;2023-10-19T04:15:20;2.08;;;1.74;;
82787;SDS011;72529;51.786;4.662;2023-10-19T04:17:46;1.99;;;1.67;;
82787;SDS011;72529;51.786;4.662;2023-10-19T04:20:18;2.11;;;1.76;;
82787;SDS011;72529;51.786;4.662;2023-10-19T04:22:44;2.19;;;1.81;;
82787;SDS011;72529;51.786;4.662;2023-10-19T04:25:09;2.34;;;1.93;;
82787;SDS011;72529;51.786;4.662;2023-10-19T04:27:44;2.44;;;2.05;;
82787;SDS011;72529;51.786;4.662;2023-10-19T04:30:14;2.12;;;1.77;;
82787;SDS011;72529;51.786;4.662;2023-10-19T04:32:44;1.82;;;1.53;;
82787;SDS011;72529;51.786;4.662;2023-10-19T04:35:11;2.12;;;1.80;;
82787;SDS011;72529;51.786;4.662;2023-10-19T04:37:53;2.06;;;1.74;;
82787;SDS011;72529;51.786;4.662;2023-10-19T04:40:19;2.30;;;1.93;;
82787;SDS011;72529;51.786;4.662;2023-10-19T04:42:46;2.09;;;1.74;;
82787;SDS011;72529;51.786;4.662;2023-10-19T04:45:12;2.38;;;1.97;;
82787;SDS011;72529;51.786;4.662;2023-10-19T04:47:38;2.12;;;1.75;;
82787;SDS011;72529;51.786;4.662;2023-10-19T04:50:07;2.41;;;2.00;;
82787;SDS011;72529;51.786;4.662;2023-10-19T04:52:35;2.24;;;1.88;;
82787;SDS011;72529;51.786;4.662;2023-10-19T04:55:01;2.38;;;2.01;;
82787;SDS011;72529;51.786;4.662;2023-10-19T04:57:27;2.27;;;1.89;;
82787;SDS011;72529;51.786;4.662;2023-10-19T04:59:53;2.11;;;1.77;;
82787;SDS011;72529;51.786;4.662;2023-10-19T05:02:18;2.21;;;1.85;;
82787;SDS011;72529;51.786;4.662;2023-10-19T05:04:44;2.28;;;1.94;;
82787;SDS011;72529;51.786;4.662;2023-10-19T05:07:10;2.35;;;1.99;;
82787;SDS011;72529;51.786;4.662;2023-10-19T05:09:42;2.26;;;1.89;;
82787;SDS011;72529;51.786;4.662;2023-10-19T05:12:08;2.22;;;1.85;;
82787;SDS011;72529;51.786;4.662;2023-10-19T05:14:41;2.30;;;1.93;;
82787;SDS011;72529;51.786;4.662;2023-10-19T05:17:08;2.20;;;1.86;;
82787;SDS011;72529;51.786;4.662;2023-10-19T05:19:34;2.53;;;2.18;;
82787;SDS011;72529;51.786;4.662;2023-10-19T05:22:02;2.14;;;1.88;;
82787;SDS011;72529;51.786;4.662;2023-10-19T05:24:31;2.54;;;2.20;;
82787;SDS011;72529;51.786;4.662;2023-10-19T05:26:57;2.65;;;2.24;;
82787;SDS011;72529;51.786;4.662;2023-10-19T05:29:23;2.39;;;2.02;;
82787;SDS011;72529;51.786;4.662;2023-10-19T05:31:50;2.31;;;1.99;;
82787;SDS011;72529;51.786;4.662;2023-10-19T05:34:21;2.45;;;2.13;;
82787;SDS011;72529;51.786;4.662;2023-10-19T05:36:48;2.39;;;2.09;;
82787;SDS011;72529;51.786;4.662;2023-10-19T05:39:17;2.38;;;2.09;;
82787;SDS011;72529;51.786;4.662;2023-10-19T05:41:43;2.45;;;2.12;;
82787;SDS011;72529;51.786;4.662;2023-10-19T05:44:09;2.71;;;2.32;;
82787;SDS011;72529;51.786;4.662;2023-10-19T05:46:35;2.83;;;2.40;;
82787;SDS011;72529;51.786;4.662;2023-10-19T05:49:01;2.88;;;2.47;;
82787;SDS011;72529;51.786;4.662;2023-10-19T05:51:29;2.77;;;2.36;;
82787;SDS011;72529;51.786;4.662;2023-10-19T05:53:55;3.00;;;2.51;;
82787;SDS011;72529;51.786;4.662;2023-10-19T05:56:27;2.83;;;2.42;;
82787;SDS011;72529;51.786;4.662;2023-10-19T05:58:52;2.60;;;2.24;;
82787;SDS011;72529;51.786;4.662;2023-10-19T06:01:19;2.38;;;2.07;;
82787;SDS011;72529;51.786;4.662;2023-10-19T06:03:45;2.39;;;2.07;;
82787;SDS011;72529;51.786;4.662;2023-10-19T06:06:10;2.51;;;2.17;;
82787;SDS011;72529;51.786;4.662;2023-10-19T06:08:36;2.73;;;2.33;;
82787;SDS011;72529;51.786;4.662;2023-10-19T06:11:01;2.59;;;2.18;;
82787;SDS011;72529;51.786;4.662;2023-10-19T06:13:27;2.86;;;2.40;;
82787;SDS011;72529;51.786;4.662;2023-10-19T06:15:54;2.52;;;2.10;;
82787;SDS011;72529;51.786;4.662;2023-10-19T06:18:20;2.34;;;1.95;;
82787;SDS011;72529;51.786;4.662;2023-10-19T06:20:46;2.83;;;2.36;;
82787;SDS011;72529;51.786;4.662;2023-10-19T06:23:12;2.73;;;2.32;;
82787;SDS011;72529;51.786;4.662;2023-10-19T06:25:37;2.36;;;2.01;;
82787;SDS011;72529;51.786;4.662;2023-10-19T06:28:04;2.65;;;2.27;;
82787;SDS011;72529;51.786;4.662;2023-10-19T06:30:30;2.34;;;2.05;;
82787;SDS011;72529;51.786;4.662;2023-10-19T06:32:57;2.40;;;2.11;;
82787;SDS011;72529;51.786;4.662;2023-10-19T06:35:28;2.75;;;2.42;;
82787;SDS011;72529;51.786;4.662;2023-10-19T06:37:57;2.42;;;2.13;;
82787;SDS011;72529;51.786;4.662;2023-10-19T06:40:24;2.57;;;2.29;;
82787;SDS011;72529;51.786;4.662;2023-10-19T06:42:51;2.19;;;1.96;;
82787;SDS011;72529;51.786;4.662;2023-10-19T06:45:21;2.29;;;2.05;;
82787;SDS011;72529;51.786;4.662;2023-10-19T06:47:47;2.53;;;2.26;;
82787;SDS011;72529;51.786;4.662;2023-10-19T06:50:18;2.46;;;2.17;;
82787;SDS011;72529;51.786;4.662;2023-10-19T06:52:45;2.27;;;1.99;;
82787;SDS011;72529;51.786;4.662;2023-10-19T06:55:15;2.11;;;1.82;;
82787;SDS011;72529;51.786;4.662;2023-10-19T06:57:44;2.34;;;2.01;;
82787;SDS011;72529;51.786;4.662;2023-10-19T07:00:12;2.51;;;2.16;;
82787;SDS011;72529;51.786;4.662;2023-10-19T07:02:40;2.36;;;2.02;;
82787;SDS011;72529;51.786;4.662;2023-10-19T07:05:07;2.45;;;2.08;;
82787;SDS011;72529;51.786;4.662;2023-10-19T07:07:43;2.37;;;1.97;;
82787;SDS011;72529;51.786;4.662;2023-10-19T07:10:10;2.51;;;2.05;;
82787;SDS011;72529;51.786;4.662;2023-10-19T07:12:38;2.61;;;2.12;;
82787;SDS011;72529;51.786;4.662;2023-10-19T07:15:05;3.02;;;2.49;;
82787;SDS011;72529;51.786;4.662;2023-10-19T07:17:39;2.94;;;2.41;;
82787;SDS011;72529;51.786;4.662;2023-10-19T07:20:08;2.79;;;2.24;;
82787;SDS011;72529;51.786;4.662;2023-10-19T07:22:47;2.80;;;2.25;;
82787;SDS011;72529;51.786;4.662;2023-10-19T07:25:12;3.02;;;2.52;;
82787;SDS011;72529;51.786;4.662;2023-10-19T07:27:38;3.24;;;2.70;;
82787;SDS011;72529;51.786;4.662;2023-10-19T07:30:08;2.80;;;2.28;;
82787;SDS011;72529;51.786;4.662;2023-10-19T07:32:34;2.66;;;2.15;;
82787;SDS011;72529;51.786;4.662;2023-10-19T07:35:00;3.22;;;2.55;;
82787;SDS011;72529;51.786;4.662;2023-10-19T07:37:26;3.19;;;2.48;;
82787;SDS011;72529;51.786;4.662;2023-10-19T07:39:53;3.26;;;2.56;;
82787;SDS011;72529;51.786;4.662;2023-10-19T07:42:22;3.20;;;2.57;;
82787;SDS011;72529;51.786;4.662;2023-10-19T07:44:47;3.21;;;2.57;;
82787;SDS011;72529;51.786;4.662;2023-10-19T07:47:14;3.10;;;2.51;;
82787;SDS011;72529;51.786;4.662;2023-10-19T07:49:40;3.08;;;2.53;;
82787;SDS011;72529;51.786;4.662;2023-10-19T07:52:05;3.15;;;2.59;;
82787;SDS011;72529;51.786;4.662;2023-10-19T07:54:32;3.18;;;2.60;;
82787;SDS011;72529;51.786;4.662;2023-10-19T07:56:59;3.89;;;3.14;;
82787;SDS011;72529;51.786;4.662;2023-10-19T07:59:28;3.82;;;3.01;;
82787;SDS011;72529;51.786;4.662;2023-10-19T08:01:54;3.81;;;3.00;;
82787;SDS011;72529;51.786;4.662;2023-10-19T08:04:19;3.98;;;3.20;;
82787;SDS011;72529;51.786;4.662;2023-10-19T08:06:45;3.97;;;3.25;;
82787;SDS011;72529;51.786;4.662;2023-10-19T08:09:12;3.50;;;2.94;;
82787;SDS011;72529;51.786;4.662;2023-10-19T08:11:37;3.97;;;3.28;;
82787;SDS011;72529;51.786;4.662;2023-10-19T08:14:02;3.61;;;2.98;;
82787;SDS011;72529;51.786;4.662;2023-10-19T08:16:28;3.96;;;3.25;;
82787;SDS011;72529;51.786;4.662;2023-10-19T08:18:53;3.94;;;3.20;;
82787;SDS011;72529;51.786;4.662;2023-10-19T08:21:19;3.90;;;3.19;;
82787;SDS011;72529;51.786;4.662;2023-10-19T08:23:44;4.25;;;3.51;;
82787;SDS011;72529;51.786;4.662;2023-10-19T08:26:11;4.16;;;3.46;;
82787;SDS011;72529;51.786;4.662;2023-10-19T08:28:36;4.35;;;3.53;;
82787;SDS011;72529;51.786;4.662;2023-10-19T08:31:02;4.05;;;3.34;;
82787;SDS011;72529;51.786;4.662;2023-10-19T08:33:28;4.00;;;3.32;;
82787;SDS011;72529;51.786;4.662;2023-10-19T08:35:57;4.31;;;3.53;;
82787;SDS011;72529;51.786;4.662;2023-10-19T08:38:25;3.83;;;3.16;;
82787;SDS011;72529;51.786;4.662;2023-10-19T08:40:51;4.31;;;3.52;;
82787;SDS011;72529;51.786;4.662;2023-10-19T08:43:20;4.12;;;3.39;;
82787;SDS011;72529;51.786;4.662;2023-10-19T08:45:46;4.17;;;3.41;;
82787;SDS011;72529;51.786;4.662;2023-10-19T08:48:12;3.88;;;3.28;;
82787;SDS011;72529;51.786;4.662;2023-10-19T08:50:39;4.61;;;3.85;;
82787;SDS011;72529;51.786;4.662;2023-10-19T08:53:05;4.36;;;3.62;;
82787;SDS011;72529;51.786;4.662;2023-10-19T08:55:38;5.06;;;4.21;;
82787;SDS011;72529;51.786;4.662;2023-10-19T08:58:04;4.80;;;4.11;;
82787;SDS011;72529;51.786;4.662;2023-10-19T09:00:42;4.74;;;4.14;;
82787;SDS011;72529;51.786;4.662;2023-10-19T09:03:12;5.14;;;4.46;;
82787;SDS011;72529;51.786;4.662;2023-10-19T09:05:39;4.33;;;3.78;;
82787;SDS011;72529;51.786;4.662;2023-10-19T09:08:05;3.86;;;3.31;;
82787;SDS011;72529;51.786;4.662;2023-10-19T09:10:31;4.05;;;3.40;;
82787;SDS011;72529;51.786;4.662;2023-10-19T09:13:06;4.26;;;3.50;;
82787;SDS011;72529;51.786;4.662;2023-10-19T09:15:37;4.24;;;3.38;;
82787;SDS011;72529;51.786;4.662;2023-10-19T09:18:11;4.08;;;3.28;;
82787;SDS011;72529;51.786;4.662;2023-10-19T09:20:41;4.36;;;3.42;;
82787;SDS011;72529;51.786;4.662;2023-10-19T09:23:18;4.06;;;3.24;;
82787;SDS011;72529;51.786;4.662;2023-10-19T09:25:47;4.50;;;3.51;;
82787;SDS011;72529;51.786;4.662;2023-10-19T09:28:14;4.81;;;3.73;;
82787;SDS011;72529;51.786;4.662;2023-10-19T09:30:40;4.50;;;3.46;;
82787;SDS011;72529;51.786;4.662;2023-10-19T09:33:08;4.52;;;3.47;;
82787;SDS011;72529;51.786;4.662;2023-10-19T09:35:34;4.22;;;3.22;;
82787;SDS011;72529;51.786;4.662;2023-10-19T09:38:02;4.73;;;3.64;;
82787;SDS011;72529;51.786;4.662;2023-10-19T09:40:30;4.36;;;3.35;;
82787;SDS011;72529;51.786;4.662;2023-10-19T09:42:56;4.40;;;3.34;;
82787;SDS011;72529;51.786;4.662;2023-10-19T09:45:26;4.44;;;3.33;;
82787;SDS011;72529;51.786;4.662;2023-10-19T09:47:55;5.07;;;3.82;;
82787;SDS011;72529;51.786;4.662;2023-10-19T09:50:21;4.64;;;3.53;;
82787;SDS011;72529;51.786;4.662;2023-10-19T09:52:47;4.81;;;3.70;;
82787;SDS011;72529;51.786;4.662;2023-10-19T09:55:26;4.64;;;3.57;;
82787;SDS011;72529;51.786;4.662;2023-10-19T09:57:58;4.58;;;3.48;;
82787;SDS011;72529;51.786;4.662;2023-10-19T10:00:31;4.38;;;3.35;;
82787;SDS011;72529;51.786;4.662;2023-10-19T10:02:57;4.45;;;3.42;;
82787;SDS011;72529;51.786;4.662;2023-10-19T10:10:48;4.08;;;3.12;;
82787;SDS011;72529;51.786;4.662;2023-10-19T10:15:57;4.43;;;3.42;;
82787;SDS011;72529;51.786;4.662;2023-10-19T10:18:25;4.47;;;3.39;;
82787;SDS011;72529;51.786;4.662;2023-10-19T10:21:10;4.56;;;3.39;;
82787;SDS011;72529;51.786;4.662;2023-10-19T10:23:43;4.25;;;3.16;;
82787;SDS011;72529;51.786;4.662;2023-10-19T10:26:14;5.07;;;3.64;;
82787;SDS011;72529;51.786;4.662;2023-10-19T10:28:41;5.15;;;3.67;;
82787;SDS011;72529;51.786;4.662;2023-10-19T10:31:12;5.05;;;3.57;;
82787;SDS011;72529;51.786;4.662;2023-10-19T10:36:16;5.33;;;3.66;;
82787;SDS011;72529;51.786;4.662;2023-10-19T10:38:42;5.31;;;3.69;;
82787;SDS011;72529;51.786;4.662;2023-10-19T10:41:08;5.09;;;3.61;;
82787;SDS011;72529;51.786;4.662;2023-10-19T10:43:49;4.37;;;3.15;;
82787;SDS011;72529;51.786;4.662;2023-10-19T10:46:18;5.49;;;3.94;;
82787;SDS011;72529;51.786;4.662;2023-10-19T10:48:44;5.44;;;3.83;;
82787;SDS011;72529;51.786;4.662;2023-10-19T10:51:20;5.71;;;4.01;;
82787;SDS011;72529;51.786;4.662;2023-10-19T10:53:52;5.04;;;3.64;;
82787;SDS011;72529;51.786;4.662;2023-10-19T10:56:20;4.84;;;3.52;;
82787;SDS011;72529;51.786;4.662;2023-10-19T10:58:46;5.16;;;3.71;;
82787;SDS011;72529;51.786;4.662;2023-10-19T11:01:12;5.25;;;3.72;;
82787;SDS011;72529;51.786;4.662;2023-10-19T11:03:41;5.49;;;3.85;;
82787;SDS011;72529;51.786;4.662;2023-10-19T11:06:11;5.44;;;3.81;;
82787;SDS011;72529;51.786;4.662;2023-10-19T11:08:37;5.35;;;3.80;;
82787;SDS011;72529;51.786;4.662;2023-10-19T11:11:07;5.43;;;3.80;;
82787;SDS011;72529;51.786;4.662;2023-10-19T11:13:36;5.67;;;3.92;;
82787;SDS011;72529;51.786;4.662;2023-10-19T11:16:04;6.41;;;4.45;;
82787;SDS011;72529;51.786;4.662;2023-10-19T11:18:34;5.46;;;3.79;;
82787;SDS011;72529;51.786;4.662;2023-10-19T11:21:11;6.50;;;4.49;;
82787;SDS011;72529;51.786;4.662;2023-10-19T11:23:43;6.07;;;4.20;;
82787;SDS011;72529;51.786;4.662;2023-10-19T11:26:11;6.03;;;4.12;;
82787;SDS011;72529;51.786;4.662;2023-10-19T11:28:38;6.63;;;4.54;;
82787;SDS011;72529;51.786;4.662;2023-10-19T11:31:13;5.88;;;4.09;;
82787;SDS011;72529;51.786;4.662;2023-10-19T11:33:43;5.83;;;4.09;;
82787;SDS011;72529;51.786;4.662;2023-10-19T11:36:10;5.20;;;3.68;;
82787;SDS011;72529;51.786;4.662;2023-10-19T11:38:43;5.17;;;3.70;;
82787;SDS011;72529;51.786;4.662;2023-10-19T11:41:10;5.41;;;3.93;;
82787;SDS011;72529;51.786;4.662;2023-10-19T11:43:38;5.71;;;4.05;;
82787;SDS011;72529;51.786;4.662;2023-10-19T11:46:05;5.26;;;3.78;;
82787;SDS011;72529;51.786;4.662;2023-10-19T11:48:34;5.63;;;4.08;;
82787;SDS011;72529;51.786;4.662;2023-10-19T11:51:01;4.76;;;3.51;;
82787;SDS011;72529;51.786;4.662;2023-10-19T11:53:31;4.65;;;3.40;;
82787;SDS011;72529;51.786;4.662;2023-10-19T11:56:06;5.38;;;3.87;;
82787;SDS011;72529;51.786;4.662;2023-10-19T11:58:35;5.95;;;4.24;;
82787;SDS011;72529;51.786;4.662;2023-10-19T12:01:03;5.30;;;3.80;;
82787;SDS011;72529;51.786;4.662;2023-10-19T12:03:41;5.73;;;4.15;;
82787;SDS011;72529;51.786;4.662;2023-10-19T12:06:08;5.32;;;3.84;;
82787;SDS011;72529;51.786;4.662;2023-10-19T12:08:36;5.76;;;4.16;;
82787;SDS011;72529;51.786;4.662;2023-10-19T12:11:02;5.53;;;4.05;;
82787;SDS011;72529;51.786;4.662;2023-10-19T12:13:40;5.30;;;3.87;;
82787;SDS011;72529;51.786;4.662;2023-10-19T12:16:08;5.76;;;4.22;;
82787;SDS011;72529;51.786;4.662;2023-10-19T12:18:40;5.41;;;4.02;;
82787;SDS011;72529;51.786;4.662;2023-10-19T12:21:10;5.53;;;4.19;;
82787;SDS011;72529;51.786;4.662;2023-10-19T12:23:39;6.07;;;4.54;;
82787;SDS011;72529;51.786;4.662;2023-10-19T12:26:06;5.34;;;3.96;;
82787;SDS011;72529;51.786;4.662;2023-10-19T12:28:39;5.87;;;4.32;;
82787;SDS011;72529;51.786;4.662;2023-10-19T12:31:06;5.71;;;4.22;;
82787;SDS011;72529;51.786;4.662;2023-10-19T12:33:36;4.69;;;3.55;;
82787;SDS011;72529;51.786;4.662;2023-10-19T12:36:03;6.65;;;5.11;;
82787;SDS011;72529;51.786;4.662;2023-10-19T12:38:48;5.40;;;4.12;;
82787;SDS011;72529;51.786;4.662;2023-10-19T12:41:14;5.34;;;4.10;;
82787;SDS011;72529;51.786;4.662;2023-10-19T12:43:40;6.47;;;4.97;;
82787;SDS011;72529;51.786;4.662;2023-10-19T12:46:06;5.37;;;4.17;;
82787;SDS011;72529;51.786;4.662;2023-10-19T12:48:33;5.52;;;4.22;;
82787;SDS011;72529;51.786;4.662;2023-10-19T12:51:03;4.76;;;3.72;;
82787;SDS011;72529;51.786;4.662;2023-10-19T12:53:32;5.15;;;4.13;;
82787;SDS011;72529;51.786;4.662;2023-10-19T12:55:58;5.42;;;4.41;;
82787;SDS011;72529;51.786;4.662;2023-10-19T12:58:24;4.65;;;3.72;;
82787;SDS011;72529;51.786;4.662;2023-10-19T13:00:52;5.33;;;4.11;;
82787;SDS011;72529;51.786;4.662;2023-10-19T13:03:19;5.28;;;4.09;;
82787;SDS011;72529;51.786;4.662;2023-10-19T13:05:47;5.14;;;3.91;;
82787;SDS011;72529;51.786;4.662;2023-10-19T13:08:14;5.21;;;3.95;;
82787;SDS011;72529;51.786;4.662;2023-10-19T13:10:41;4.84;;;3.65;;
82787;SDS011;72529;51.786;4.662;2023-10-19T13:13:10;4.99;;;3.72;;
82787;SDS011;72529;51.786;4.662;2023-10-19T13:15:37;4.94;;;3.72;;
82787;SDS011;72529;51.786;4.662;2023-10-19T13:18:05;5.59;;;4.26;;
82787;SDS011;72529;51.786;4.662;2023-10-19T13:20:32;5.50;;;4.33;;
82787;SDS011;72529;51.786;4.662;2023-10-19T13:23:05;5.49;;;4.33;;
82787;SDS011;72529;51.786;4.662;2023-10-19T13:25:35;4.83;;;3.82;;
82787;SDS011;72529;51.786;4.662;2023-10-19T13:28:10;4.97;;;3.99;;
82787;SDS011;72529;51.786;4.662;2023-10-19T13:30:48;4.59;;;3.62;;
82787;SDS011;72529;51.786;4.662;2023-10-19T13:33:15;5.08;;;3.90;;
82787;SDS011;72529;51.786;4.662;2023-10-19T13:35:44;5.16;;;4.02;;
82787;SDS011;72529;51.786;4.662;2023-10-19T13:38:11;5.21;;;4.12;;
82787;SDS011;72529;51.786;4.662;2023-10-19T13:40:39;4.99;;;3.94;;
82787;SDS011;72529;51.786;4.662;2023-10-19T13:43:06;5.54;;;4.42;;
82787;SDS011;72529;51.786;4.662;2023-10-19T13:45:34;4.84;;;3.99;;
82787;SDS011;72529;51.786;4.662;2023-10-19T13:48:04;4.34;;;3.64;;
82787;SDS011;72529;51.786;4.662;2023-10-19T13:50:30;4.32;;;3.64;;
82787;SDS011;72529;51.786;4.662;2023-10-19T13:52:57;4.75;;;3.95;;
82787;SDS011;72529;51.786;4.662;2023-10-19T13:55:25;4.60;;;3.83;;
82787;SDS011;72529;51.786;4.662;2023-10-19T13:57:52;4.73;;;3.94;;
82787;SDS011;72529;51.786;4.662;2023-10-19T14:00:18;4.73;;;3.97;;
82787;SDS011;72529;51.786;4.662;2023-10-19T14:03:05;4.67;;;3.95;;
82787;SDS011;72529;51.786;4.662;2023-10-19T14:05:38;4.30;;;3.70;;
82787;SDS011;72529;51.786;4.662;2023-10-19T14:08:07;4.14;;;3.64;;
82787;SDS011;72529;51.786;4.662;2023-10-19T14:10:34;4.71;;;4.11;;
82787;SDS011;72529;51.786;4.662;2023-10-19T14:13:01;4.26;;;3.71;;
82787;SDS011;72529;51.786;4.662;2023-10-19T14:15:27;5.83;;;4.99;;
82787;SDS011;72529;51.786;4.662;2023-10-19T14:17:55;4.53;;;3.96;;
82787;SDS011;72529;51.786;4.662;2023-10-19T14:20:24;4.66;;;4.08;;
82787;SDS011;72529;51.786;4.662;2023-10-19T14:22:51;4.51;;;3.91;;
82787;SDS011;72529;51.786;4.662;2023-10-19T14:25:20;4.11;;;3.58;;
82787;SDS011;72529;51.786;4.662;2023-10-19T14:27:49;4.22;;;3.66;;
82787;SDS011;72529;51.786;4.662;2023-10-19T14:30:16;4.00;;;3.43;;
82787;SDS011;72529;51.786;4.662;2023-10-19T14:32:47;3.94;;;3.30;;
82787;SDS011;72529;51.786;4.662;2023-10-19T14:35:13;4.36;;;3.69;;
82787;SDS011;72529;51.786;4.662;2023-10-19T14:37:41;4.26;;;3.61;;
82787;SDS011;72529;51.786;4.662;2023-10-19T14:40:08;5.78;;;5.04;;
82787;SDS011;72529;51.786;4.662;2023-10-19T14:42:38;4.06;;;3.55;;
82787;SDS011;72529;51.786;4.662;2023-10-19T14:45:11;4.63;;;4.02;;
82787;SDS011;72529;51.786;4.662;2023-10-19T14:47:39;4.05;;;3.53;;
82787;SDS011;72529;51.786;4.662;2023-10-19T14:50:12;5.63;;;4.90;;
82787;SDS011;72529;51.786;4.662;2023-10-19T14:52:41;4.99;;;4.51;;
82787;SDS011;72529;51.786;4.662;2023-10-19T14:55:08;5.07;;;4.60;;
82787;SDS011;72529;51.786;4.662;2023-10-19T14:57:35;5.47;;;4.98;;
82787;SDS011;72529;51.786;4.662;2023-10-19T15:00:05;4.84;;;4.37;;
82787;SDS011;72529;51.786;4.662;2023-10-19T15:02:50;4.99;;;4.45;;
82787;SDS011;72529;51.786;4.662;2023-10-19T15:05:16;3.81;;;3.41;;
82787;SDS011;72529;51.786;4.662;2023-10-19T15:07:43;4.18;;;3.74;;
82787;SDS011;72529;51.786;4.662;2023-10-19T15:10:11;4.08;;;3.63;;
82787;SDS011;72529;51.786;4.662;2023-10-19T15:12:38;3.87;;;3.45;;